createdAt,value
2022-08-20T00:04:04.815Z,2.33
2022-08-20T00:09:09.210Z,3.05
2022-08-20T00:14:12.492Z,2.72
2022-08-20T00:19:14.396Z,2.78
2022-08-20T00:24:16.682Z,2.20
2022-08-20T00:29:20.229Z,2.10
2022-08-20T00:34:23.244Z,1.88
2022-08-20T00:39:25.479Z,2.42
2022-08-20T00:44:30.797Z,1.98
2022-08-20T00:49:33.288Z,2.35
2022-08-20T00:54:38.398Z,2.53
2022-08-20T00:59:50.057Z,1.98
2022-08-20T01:05:00.727Z,2.30
2022-08-20T01:10:09.569Z,2.50
2022-08-20T01:15:15.315Z,3.30
2022-08-20T01:20:43.673Z,3.50
2022-08-20T01:25:56.040Z,3.30
2022-08-20T01:31:01.289Z,3.22
2022-08-20T01:36:10.621Z,3.47
2022-08-20T01:41:28.931Z,3.85
2022-08-20T01:46:44.422Z,4.40
2022-08-20T01:51:46.870Z,4.07
2022-08-20T01:57:07.545Z,3.63
2022-08-20T02:02:12.781Z,3.90
2022-08-20T02:07:20.446Z,3.88
2022-08-20T02:12:22.547Z,3.10
2022-08-20T02:17:25.924Z,3.28
2022-08-20T02:22:40.888Z,3.72
2022-08-20T02:28:03.760Z,3.10
2022-08-20T02:33:07.986Z,3.22
2022-08-20T02:38:11.019Z,2.97
2022-08-20T02:43:14.150Z,2.88
2022-08-20T02:48:21.298Z,3.10
2022-08-20T02:53:34.381Z,2.90
2022-08-20T02:58:36.728Z,2.70
2022-08-20T03:03:40.515Z,3.00
2022-08-20T03:08:43.592Z,3.08
2022-08-20T03:13:48.741Z,3.50
2022-08-20T03:18:52.192Z,3.45
2022-08-20T03:23:54.331Z,3.80
2022-08-20T03:28:56.297Z,3.00
2022-08-20T03:33:58.251Z,2.80
2022-08-20T03:39:06.981Z,3.22
2022-08-20T03:44:11.642Z,3.35
2022-08-20T03:49:13.571Z,3.63
2022-08-20T03:54:21.564Z,3.03
2022-08-20T03:59:23.631Z,3.00
2022-08-20T04:04:26.538Z,2.80
2022-08-20T04:09:32.177Z,2.67
2022-08-20T04:14:36.429Z,2.63
2022-08-20T04:19:39.217Z,2.80
2022-08-20T04:24:43.086Z,2.60
2022-08-20T04:29:48.385Z,2.70
2022-08-20T04:34:52.210Z,2.80
2022-08-20T04:40:12.595Z,3.20
2022-08-20T04:45:15.114Z,2.70
2022-08-20T04:50:18.433Z,2.58
2022-08-20T04:55:21.139Z,2.90
2022-08-20T05:00:23.301Z,2.67
2022-08-20T05:05:26.700Z,3.40
2022-08-20T05:10:30.256Z,2.83
2022-08-20T05:15:33.006Z,2.58
2022-08-20T05:20:40.364Z,2.20
2022-08-20T05:25:45.405Z,2.58
2022-08-20T05:30:48.447Z,2.35
2022-08-20T05:35:53.033Z,2.17
2022-08-20T05:40:55.403Z,2.10
2022-08-20T05:45:58.602Z,2.60
2022-08-20T05:51:00.553Z,2.55
2022-08-20T05:56:02.665Z,2.90
2022-08-20T06:01:06.284Z,2.50
2022-08-20T06:06:18.423Z,2.67
2022-08-20T06:11:33.897Z,3.00
2022-08-20T06:22:17.252Z,2.75
2022-08-20T06:27:24.696Z,2.55
2022-08-20T06:32:32.235Z,2.53
2022-08-20T06:37:36.951Z,2.20
2022-08-20T06:42:48.101Z,2.33
2022-08-20T06:47:52.256Z,2.65
2022-08-20T06:52:54.510Z,2.08
2022-08-20T06:58:05.092Z,2.17
2022-08-20T07:03:07.128Z,1.80
2022-08-20T07:08:15.112Z,2.30
2022-08-20T07:13:17.368Z,2.55
2022-08-20T07:18:28.117Z,1.88
2022-08-20T07:23:31.790Z,1.95
2022-08-20T07:28:34.834Z,1.83
2022-08-20T07:33:40.143Z,1.80
2022-08-20T07:38:45.897Z,2.00
2022-08-20T07:43:48.876Z,1.85
2022-08-20T07:48:51.642Z,1.38
2022-08-20T07:53:54.209Z,1.10
2022-08-20T07:58:59.193Z,1.88
2022-08-20T08:04:01.495Z,1.90
2022-08-20T08:09:09.846Z,1.90
2022-08-20T08:14:12.219Z,2.10
2022-08-20T08:19:17.152Z,1.67
2022-08-20T08:24:22.490Z,1.60
2022-08-20T08:29:26.691Z,2.00
2022-08-20T08:34:29.234Z,1.80
2022-08-20T08:39:35.014Z,1.70
2022-08-20T08:44:41.618Z,1.65
2022-08-20T08:49:49.839Z,1.98
2022-08-20T08:54:58.792Z,1.65
2022-08-20T09:00:15.662Z,1.30
2022-08-20T09:05:23.322Z,1.60
2022-08-20T09:10:25.353Z,1.60
2022-08-20T09:15:27.502Z,1.20
2022-08-20T09:20:32.749Z,1.10
2022-08-20T09:25:35.092Z,1.48
2022-08-20T09:30:37.522Z,1.00
2022-08-20T09:35:45.154Z,1.08
2022-08-20T09:40:47.425Z,1.20
2022-08-20T09:45:49.391Z,1.50
2022-08-20T09:50:51.975Z,1.52
2022-08-20T09:55:56.863Z,1.33
2022-08-20T10:01:03.930Z,1.30
2022-08-20T10:06:06.020Z,1.25
2022-08-20T10:11:14.331Z,1.20
2022-08-20T10:16:16.381Z,1.35
2022-08-20T10:21:18.452Z,1.55
2022-08-20T10:26:20.677Z,1.48
2022-08-20T10:31:23.022Z,1.40
2022-08-20T10:36:24.937Z,1.40
2022-08-20T10:41:28.361Z,1.40
2022-08-20T10:46:30.685Z,1.40
2022-08-20T10:51:50.931Z,1.38
2022-08-20T10:56:56.108Z,1.17
2022-08-20T11:01:58.147Z,1.50
2022-08-20T11:07:20.470Z,1.30
2022-08-20T11:12:22.966Z,1.40
2022-08-20T11:17:29.337Z,1.48
2022-08-20T11:22:31.672Z,1.63
2022-08-20T11:27:39.108Z,1.25
2022-08-20T11:32:51.646Z,1.40
2022-08-20T11:37:55.795Z,1.77
2022-08-20T11:43:14.065Z,1.20
2022-08-20T11:48:20.353Z,1.70
2022-08-20T11:53:22.402Z,1.60
2022-08-20T11:58:24.371Z,1.50
2022-08-20T12:03:44.560Z,1.60
2022-08-20T12:09:06.498Z,1.77
2022-08-20T12:14:08.523Z,1.60
2022-08-20T12:19:10.432Z,1.42
2022-08-20T12:24:12.416Z,1.55
2022-08-20T12:29:14.346Z,1.50
2022-08-20T12:34:16.521Z,1.60
2022-08-20T12:39:21.069Z,1.75
2022-08-20T12:44:23.005Z,1.88
2022-08-20T12:49:24.993Z,1.70
2022-08-20T12:54:26.916Z,1.80
2022-08-20T12:59:28.994Z,1.85
2022-08-20T13:04:33.578Z,2.00
2022-08-20T13:09:35.526Z,2.20
2022-08-20T13:14:43.173Z,1.80
2022-08-20T13:19:46.824Z,2.00
2022-08-20T13:24:48.731Z,1.90
2022-08-20T13:29:58.199Z,2.00
2022-08-20T13:35:00.686Z,1.90
2022-08-20T13:40:03.012Z,2.03
2022-08-20T13:45:06.178Z,2.13
2022-08-20T13:50:18.493Z,2.10
2022-08-20T13:55:22.736Z,2.05
2022-08-20T14:00:31.109Z,1.88
2022-08-20T14:05:34.468Z,1.70
2022-08-20T14:10:36.917Z,1.80
2022-08-20T14:15:38.966Z,1.60
2022-08-20T14:20:42.218Z,1.58
2022-08-20T14:25:49.534Z,1.60
2022-08-20T14:30:53.327Z,1.33
2022-08-20T14:35:55.919Z,1.30
2022-08-20T14:40:57.876Z,1.50
2022-08-20T14:45:59.921Z,1.80
2022-08-20T14:51:03.163Z,1.63
2022-08-20T14:56:05.652Z,1.70
2022-08-20T15:01:07.759Z,1.45
2022-08-20T15:06:21.884Z,1.25
2022-08-20T15:11:31.264Z,1.15
2022-08-20T15:16:36.033Z,1.70
2022-08-20T15:21:45.231Z,1.45
2022-08-20T15:26:49.137Z,1.60
2022-08-20T15:31:51.895Z,1.38
2022-08-20T15:36:54.131Z,1.20
2022-08-20T15:42:04.798Z,1.30
2022-08-20T15:47:27.779Z,1.40
2022-08-20T15:52:45.341Z,1.50
2022-08-20T15:58:10.517Z,1.50
2022-08-20T16:03:30.651Z,1.52
2022-08-20T16:09:01.213Z,1.33
2022-08-20T16:14:24.905Z,1.65
2022-08-20T16:20:00.787Z,1.60
2022-08-20T16:25:03.581Z,1.52
2022-08-20T16:30:11.232Z,1.40
2022-08-20T16:35:31.875Z,1.20
2022-08-20T16:40:43.624Z,1.48
2022-08-20T16:46:19.665Z,1.48
2022-08-20T16:51:52.274Z,1.27
2022-08-20T16:57:04.500Z,1.77
2022-08-20T17:02:10.574Z,1.83
2022-08-20T17:07:31.030Z,1.75
2022-08-20T17:12:35.930Z,1.50
2022-08-20T17:17:39.378Z,1.65
2022-08-20T17:22:45.501Z,1.70
2022-08-20T17:27:48.541Z,1.48
2022-08-20T17:33:25.897Z,1.70
2022-08-20T17:50:50.037Z,1.77
2022-08-20T18:01:53.286Z,1.65
2022-08-20T18:07:22.958Z,1.60
2022-08-20T18:12:49.483Z,1.35
2022-08-20T18:18:18.850Z,1.90
2022-08-20T18:23:29.729Z,1.80
2022-08-20T18:29:07.391Z,1.77
2022-08-20T18:40:33.584Z,1.98
2022-08-20T18:45:36.525Z,1.90
2022-08-20T18:50:41.412Z,1.58
2022-08-20T18:56:12.250Z,1.98
2022-08-20T19:01:16.001Z,1.70
2022-08-20T19:06:39.436Z,2.00
2022-08-20T19:11:49.251Z,1.60
2022-08-20T19:17:07.483Z,2.03
2022-08-20T19:22:12.845Z,1.92
2022-08-20T19:27:16.395Z,1.80
2022-08-20T19:32:34.571Z,2.03
2022-08-20T19:37:51.678Z,2.17
2022-08-20T19:42:55.008Z,2.30
2022-08-20T19:48:15.406Z,2.10
2022-08-20T19:53:32.337Z,1.80
2022-08-20T19:58:35.451Z,1.60
2022-08-20T20:03:38.054Z,2.35
2022-08-20T20:08:57.314Z,2.10
2022-08-20T20:14:10.589Z,2.03
2022-08-20T20:19:28.048Z,2.33
2022-08-20T20:24:47.408Z,2.45
2022-08-20T20:29:51.223Z,2.00
2022-08-20T20:35:03.756Z,1.83
2022-08-20T20:40:07.500Z,2.15
2022-08-20T20:45:29.242Z,2.20
2022-08-20T20:50:34.822Z,1.93
2022-08-20T20:55:38.432Z,1.67
2022-08-20T21:00:40.565Z,2.15
2022-08-20T21:05:42.458Z,2.03
2022-08-20T21:10:44.517Z,2.17
2022-08-20T21:15:46.849Z,2.30
2022-08-20T21:20:50.891Z,2.58
2022-08-20T21:25:53.293Z,1.58
2022-08-20T21:30:58.310Z,2.10
2022-08-20T21:36:00.601Z,1.90
2022-08-20T21:41:02.998Z,1.75
2022-08-20T21:46:18.407Z,1.92
2022-08-20T21:51:27.286Z,1.80
2022-08-20T21:56:33.800Z,1.80
2022-08-20T22:01:43.155Z,1.90
2022-08-20T22:06:45.801Z,1.90
2022-08-20T22:11:55.149Z,1.73
2022-08-20T22:17:04.973Z,1.80
2022-08-20T22:22:10.833Z,2.70
2022-08-20T22:27:13.621Z,2.30
2022-08-20T22:32:15.822Z,2.10
2022-08-20T22:37:19.711Z,2.28
2022-08-20T22:42:24.204Z,2.60
2022-08-20T22:47:29.300Z,2.22
2022-08-20T22:52:32.188Z,2.63
2022-08-20T22:57:34.543Z,2.20
2022-08-20T23:02:36.768Z,2.45
2022-08-20T23:07:39.034Z,2.47
2022-08-20T23:12:42.369Z,2.10
2022-08-20T23:17:44.515Z,2.50
2022-08-20T23:22:46.527Z,2.05
2022-08-20T23:27:57.065Z,2.22
2022-08-20T23:33:08.302Z,2.03
2022-08-20T23:38:10.673Z,2.10
2022-08-20T23:43:12.550Z,2.60
2022-08-20T23:48:14.557Z,2.08
2022-08-20T23:53:16.638Z,2.25
2022-08-20T23:58:18.722Z,2.03
